Terminal Aerodrome Forecast
Issued by NWS Austin/San Antonio, TX

Home | Current Version | Previous Version | Text Only | Print | Product List | Glossary On
Versions: 1 2 3 4 5 6 7 8 9 10 11 12 13 14 15 16 17
000
FTUS44 KEWX 261700
TAFSAT
TAF
KSAT 261725Z 2618/2724 18011KT P6SM FEW050
     FM262100 16014KT P6SM FEW060
     FM270700 18008KT P6SM SCT010
     FM271500 18010KT P6SM FEW050
     FM272100 16012KT P6SM FEW060=

USA.gov is the U.S. government's official web portal to all federal, state and local government web resources and services.